sensor_id;sensor_type;location;lat;lon;timestamp;P1;durP1;ratioP1;P2;durP2;ratioP2
65835;SDS011;52595;51.608;7.216;2022-07-29T00:02:07;5.10;;;1.60;;
65835;SDS011;52595;51.608;7.216;2022-07-29T00:04:34;2.95;;;1.65;;
65835;SDS011;52595;51.608;7.216;2022-07-29T00:07:00;6.70;;;1.73;;
65835;SDS011;52595;51.608;7.216;2022-07-29T00:09:25;6.63;;;1.55;;
65835;SDS011;52595;51.608;7.216;2022-07-29T00:11:51;5.82;;;1.65;;
65835;SDS011;52595;51.608;7.216;2022-07-29T00:14:16;3.97;;;1.70;;
65835;SDS011;52595;51.608;7.216;2022-07-29T00:16:42;4.68;;;1.80;;
65835;SDS011;52595;51.608;7.216;2022-07-29T00:19:07;5.15;;;1.67;;
65835;SDS011;52595;51.608;7.216;2022-07-29T00:21:32;4.30;;;1.70;;
65835;SDS011;52595;51.608;7.216;2022-07-29T00:23:58;8.05;;;1.50;;
65835;SDS011;52595;51.608;7.216;2022-07-29T00:26:23;4.75;;;1.55;;
65835;SDS011;52595;51.608;7.216;2022-07-29T00:28:49;5.63;;;1.70;;
65835;SDS011;52595;51.608;7.216;2022-07-29T00:31:14;5.38;;;1.65;;
65835;SDS011;52595;51.608;7.216;2022-07-29T00:33:40;5.05;;;1.63;;
65835;SDS011;52595;51.608;7.216;2022-07-29T00:36:05;4.20;;;1.52;;
65835;SDS011;52595;51.608;7.216;2022-07-29T00:38:31;6.95;;;1.73;;
65835;SDS011;52595;51.608;7.216;2022-07-29T00:40:56;2.72;;;1.60;;
65835;SDS011;52595;51.608;7.216;2022-07-29T00:43:21;6.15;;;1.60;;
65835;SDS011;52595;51.608;7.216;2022-07-29T00:45:47;5.70;;;1.60;;
65835;SDS011;52595;51.608;7.216;2022-07-29T00:48:12;3.60;;;1.70;;
65835;SDS011;52595;51.608;7.216;2022-07-29T00:50:38;5.78;;;1.58;;
65835;SDS011;52595;51.608;7.216;2022-07-29T00:53:07;4.68;;;1.60;;
65835;SDS011;52595;51.608;7.216;2022-07-29T00:55:43;7.40;;;1.90;;
65835;SDS011;52595;51.608;7.216;2022-07-29T00:58:08;5.05;;;1.60;;
65835;SDS011;52595;51.608;7.216;2022-07-29T01:00:37;6.50;;;1.70;;
65835;SDS011;52595;51.608;7.216;2022-07-29T01:03:02;5.25;;;1.50;;
65835;SDS011;52595;51.608;7.216;2022-07-29T01:05:28;3.67;;;1.58;;
65835;SDS011;52595;51.608;7.216;2022-07-29T01:07:54;4.32;;;1.40;;
65835;SDS011;52595;51.608;7.216;2022-07-29T01:10:20;4.78;;;1.83;;
65835;SDS011;52595;51.608;7.216;2022-07-29T01:12:48;2.70;;;1.50;;
65835;SDS011;52595;51.608;7.216;2022-07-29T01:15:15;4.28;;;1.70;;
65835;SDS011;52595;51.608;7.216;2022-07-29T01:31:19;5.72;;;1.75;;
65835;SDS011;52595;51.608;7.216;2022-07-29T01:33:49;5.28;;;1.70;;
65835;SDS011;52595;51.608;7.216;2022-07-29T01:36:33;4.70;;;1.70;;
65835;SDS011;52595;51.608;7.216;2022-07-29T01:39:07;3.53;;;1.80;;
65835;SDS011;52595;51.608;7.216;2022-07-29T01:41:36;2.78;;;1.50;;
65835;SDS011;52595;51.608;7.216;2022-07-29T01:44:16;3.75;;;1.50;;
65835;SDS011;52595;51.608;7.216;2022-07-29T01:46:49;3.65;;;1.50;;
65835;SDS011;52595;51.608;7.216;2022-07-29T01:49:20;5.53;;;1.60;;
65835;SDS011;52595;51.608;7.216;2022-07-29T01:51:58;2.72;;;1.52;;
65835;SDS011;52595;51.608;7.216;2022-07-29T01:54:37;6.80;;;1.85;;
65835;SDS011;52595;51.608;7.216;2022-07-29T01:57:08;6.70;;;1.70;;
65835;SDS011;52595;51.608;7.216;2022-07-29T01:59:36;5.05;;;1.63;;
65835;SDS011;52595;51.608;7.216;2022-07-29T02:02:02;5.57;;;1.63;;
65835;SDS011;52595;51.608;7.216;2022-07-29T02:04:29;5.32;;;1.50;;
65835;SDS011;52595;51.608;7.216;2022-07-29T02:07:00;12.60;;;1.50;;
65835;SDS011;52595;51.608;7.216;2022-07-29T02:09:27;2.53;;;1.60;;
65835;SDS011;52595;51.608;7.216;2022-07-29T02:11:54;7.20;;;1.70;;
65835;SDS011;52595;51.608;7.216;2022-07-29T02:14:21;5.60;;;1.90;;
65835;SDS011;52595;51.608;7.216;2022-07-29T02:16:48;3.65;;;1.80;;
65835;SDS011;52595;51.608;7.216;2022-07-29T02:19:18;3.90;;;1.73;;
65835;SDS011;52595;51.608;7.216;2022-07-29T02:21:46;6.40;;;1.88;;
65835;SDS011;52595;51.608;7.216;2022-07-29T02:24:11;5.93;;;1.80;;
65835;SDS011;52595;51.608;7.216;2022-07-29T02:26:39;3.08;;;1.60;;
65835;SDS011;52595;51.608;7.216;2022-07-29T02:29:06;5.88;;;1.83;;
65835;SDS011;52595;51.608;7.216;2022-07-29T02:31:34;3.72;;;1.55;;
65835;SDS011;52595;51.608;7.216;2022-07-29T02:34:05;2.95;;;1.52;;
65835;SDS011;52595;51.608;7.216;2022-07-29T02:36:33;6.07;;;1.50;;
65835;SDS011;52595;51.608;7.216;2022-07-29T02:38:59;2.85;;;1.60;;
65835;SDS011;52595;51.608;7.216;2022-07-29T02:41:27;3.45;;;1.60;;
65835;SDS011;52595;51.608;7.216;2022-07-29T02:43:56;4.40;;;1.70;;
65835;SDS011;52595;51.608;7.216;2022-07-29T02:46:30;5.20;;;1.97;;
65835;SDS011;52595;51.608;7.216;2022-07-29T02:49:02;7.43;;;1.70;;
65835;SDS011;52595;51.608;7.216;2022-07-29T02:51:41;4.93;;;1.67;;
65835;SDS011;52595;51.608;7.216;2022-07-29T02:54:10;8.63;;;1.90;;
65835;SDS011;52595;51.608;7.216;2022-07-29T02:56:40;4.90;;;1.90;;
65835;SDS011;52595;51.608;7.216;2022-07-29T02:59:08;4.78;;;1.70;;
65835;SDS011;52595;51.608;7.216;2022-07-29T03:01:36;5.25;;;1.77;;
65835;SDS011;52595;51.608;7.216;2022-07-29T03:04:06;6.70;;;1.90;;
65835;SDS011;52595;51.608;7.216;2022-07-29T03:06:33;4.85;;;1.60;;
65835;SDS011;52595;51.608;7.216;2022-07-29T03:09:00;7.15;;;1.90;;
65835;SDS011;52595;51.608;7.216;2022-07-29T03:11:26;4.30;;;1.80;;
65835;SDS011;52595;51.608;7.216;2022-07-29T03:13:52;5.00;;;1.50;;
65835;SDS011;52595;51.608;7.216;2022-07-29T03:16:19;3.30;;;1.60;;
65835;SDS011;52595;51.608;7.216;2022-07-29T03:18:47;4.95;;;1.98;;
65835;SDS011;52595;51.608;7.216;2022-07-29T03:21:12;6.20;;;2.00;;
65835;SDS011;52595;51.608;7.216;2022-07-29T03:23:39;5.95;;;1.80;;
65835;SDS011;52595;51.608;7.216;2022-07-29T03:26:08;3.25;;;1.70;;
65835;SDS011;52595;51.608;7.216;2022-07-29T03:28:34;6.38;;;1.73;;
65835;SDS011;52595;51.608;7.216;2022-07-29T03:30:59;6.55;;;1.70;;
65835;SDS011;52595;51.608;7.216;2022-07-29T03:33:25;3.85;;;1.70;;
65835;SDS011;52595;51.608;7.216;2022-07-29T03:35:51;6.15;;;1.85;;
65835;SDS011;52595;51.608;7.216;2022-07-29T03:38:16;4.75;;;1.73;;
65835;SDS011;52595;51.608;7.216;2022-07-29T03:40:45;7.50;;;2.00;;
65835;SDS011;52595;51.608;7.216;2022-07-29T03:43:15;4.43;;;1.60;;
65835;SDS011;52595;51.608;7.216;2022-07-29T03:45:42;7.00;;;1.80;;
65835;SDS011;52595;51.608;7.216;2022-07-29T03:48:12;5.47;;;1.85;;
65835;SDS011;52595;51.608;7.216;2022-07-29T03:50:40;5.50;;;1.60;;
65835;SDS011;52595;51.608;7.216;2022-07-29T03:53:05;5.70;;;1.73;;
65835;SDS011;52595;51.608;7.216;2022-07-29T03:55:32;7.10;;;1.90;;
65835;SDS011;52595;51.608;7.216;2022-07-29T03:58:02;5.28;;;1.70;;
65835;SDS011;52595;51.608;7.216;2022-07-29T04:00:28;3.05;;;1.70;;
65835;SDS011;52595;51.608;7.216;2022-07-29T04:02:55;8.45;;;1.88;;
65835;SDS011;52595;51.608;7.216;2022-07-29T04:05:21;5.97;;;1.88;;
65835;SDS011;52595;51.608;7.216;2022-07-29T04:07:47;4.53;;;1.70;;
65835;SDS011;52595;51.608;7.216;2022-07-29T04:10:13;7.47;;;1.80;;
65835;SDS011;52595;51.608;7.216;2022-07-29T04:12:40;6.32;;;1.80;;
65835;SDS011;52595;51.608;7.216;2022-07-29T04:15:06;7.13;;;2.20;;
65835;SDS011;52595;51.608;7.216;2022-07-29T04:17:32;2.92;;;1.70;;
65835;SDS011;52595;51.608;7.216;2022-07-29T04:19:57;6.00;;;1.80;;
65835;SDS011;52595;51.608;7.216;2022-07-29T04:22:23;3.28;;;1.80;;
65835;SDS011;52595;51.608;7.216;2022-07-29T04:24:48;3.38;;;1.67;;
65835;SDS011;52595;51.608;7.216;2022-07-29T04:27:14;5.15;;;1.98;;
65835;SDS011;52595;51.608;7.216;2022-07-29T04:29:39;5.47;;;2.00;;
65835;SDS011;52595;51.608;7.216;2022-07-29T04:32:05;6.53;;;2.00;;
65835;SDS011;52595;51.608;7.216;2022-07-29T04:34:30;4.82;;;2.03;;
65835;SDS011;52595;51.608;7.216;2022-07-29T04:36:56;7.47;;;2.00;;
65835;SDS011;52595;51.608;7.216;2022-07-29T04:39:21;7.57;;;2.00;;
65835;SDS011;52595;51.608;7.216;2022-07-29T04:41:53;5.65;;;2.10;;
65835;SDS011;52595;51.608;7.216;2022-07-29T04:44:18;6.15;;;2.00;;
65835;SDS011;52595;51.608;7.216;2022-07-29T04:46:44;4.30;;;2.00;;
65835;SDS011;52595;51.608;7.216;2022-07-29T04:49:09;9.38;;;2.08;;
65835;SDS011;52595;51.608;7.216;2022-07-29T04:51:35;5.85;;;2.10;;
65835;SDS011;52595;51.608;7.216;2022-07-29T04:54:00;5.72;;;2.10;;
65835;SDS011;52595;51.608;7.216;2022-07-29T04:56:26;5.90;;;1.98;;
65835;SDS011;52595;51.608;7.216;2022-07-29T04:58:52;3.95;;;2.10;;
65835;SDS011;52595;51.608;7.216;2022-07-29T05:01:18;4.68;;;2.30;;
65835;SDS011;52595;51.608;7.216;2022-07-29T05:03:43;5.30;;;2.53;;
65835;SDS011;52595;51.608;7.216;2022-07-29T05:06:10;6.53;;;2.60;;
65835;SDS011;52595;51.608;7.216;2022-07-29T05:08:35;5.90;;;3.03;;
65835;SDS011;52595;51.608;7.216;2022-07-29T05:11:01;5.28;;;2.72;;
65835;SDS011;52595;51.608;7.216;2022-07-29T05:13:26;5.18;;;2.97;;
65835;SDS011;52595;51.608;7.216;2022-07-29T05:15:51;4.88;;;2.67;;
65835;SDS011;52595;51.608;7.216;2022-07-29T05:18:17;6.28;;;2.83;;
65835;SDS011;52595;51.608;7.216;2022-07-29T05:20:42;5.32;;;3.10;;
65835;SDS011;52595;51.608;7.216;2022-07-29T05:23:08;7.28;;;3.03;;
65835;SDS011;52595;51.608;7.216;2022-07-29T05:25:33;5.60;;;3.03;;
65835;SDS011;52595;51.608;7.216;2022-07-29T05:27:59;7.78;;;3.33;;
65835;SDS011;52595;51.608;7.216;2022-07-29T05:30:24;10.63;;;3.00;;
65835;SDS011;52595;51.608;7.216;2022-07-29T05:32:50;8.00;;;3.22;;
65835;SDS011;52595;51.608;7.216;2022-07-29T05:35:15;6.78;;;3.72;;
65835;SDS011;52595;51.608;7.216;2022-07-29T05:37:41;6.22;;;3.08;;
65835;SDS011;52595;51.608;7.216;2022-07-29T05:40:07;7.72;;;2.90;;
65835;SDS011;52595;51.608;7.216;2022-07-29T05:42:33;5.20;;;3.00;;
65835;SDS011;52595;51.608;7.216;2022-07-29T05:44:59;8.48;;;3.30;;
65835;SDS011;52595;51.608;7.216;2022-07-29T05:47:25;5.90;;;3.03;;
65835;SDS011;52595;51.608;7.216;2022-07-29T05:49:51;6.57;;;3.08;;
65835;SDS011;52595;51.608;7.216;2022-07-29T05:52:17;4.55;;;3.00;;
65835;SDS011;52595;51.608;7.216;2022-07-29T05:54:42;5.45;;;3.08;;
65835;SDS011;52595;51.608;7.216;2022-07-29T05:57:08;5.97;;;3.00;;
65835;SDS011;52595;51.608;7.216;2022-07-29T05:59:39;7.07;;;3.10;;
65835;SDS011;52595;51.608;7.216;2022-07-29T06:02:05;4.88;;;2.95;;
65835;SDS011;52595;51.608;7.216;2022-07-29T06:04:31;9.88;;;3.08;;
65835;SDS011;52595;51.608;7.216;2022-07-29T06:06:56;5.82;;;2.67;;
65835;SDS011;52595;51.608;7.216;2022-07-29T06:09:22;8.80;;;4.80;;
65835;SDS011;52595;51.608;7.216;2022-07-29T06:11:48;8.48;;;3.13;;
65835;SDS011;52595;51.608;7.216;2022-07-29T06:14:13;5.90;;;2.78;;
65835;SDS011;52595;51.608;7.216;2022-07-29T06:16:39;6.88;;;3.10;;
65835;SDS011;52595;51.608;7.216;2022-07-29T06:19:04;6.75;;;3.20;;
65835;SDS011;52595;51.608;7.216;2022-07-29T06:21:30;8.07;;;3.15;;
65835;SDS011;52595;51.608;7.216;2022-07-29T06:23:55;7.50;;;3.08;;
65835;SDS011;52595;51.608;7.216;2022-07-29T06:26:20;5.63;;;3.13;;
65835;SDS011;52595;51.608;7.216;2022-07-29T06:28:49;6.53;;;3.00;;
65835;SDS011;52595;51.608;7.216;2022-07-29T06:31:14;7.10;;;3.03;;
65835;SDS011;52595;51.608;7.216;2022-07-29T06:33:40;6.53;;;2.97;;
65835;SDS011;52595;51.608;7.216;2022-07-29T06:36:05;5.43;;;3.03;;
65835;SDS011;52595;51.608;7.216;2022-07-29T06:38:32;4.97;;;3.00;;
65835;SDS011;52595;51.608;7.216;2022-07-29T06:40:58;4.85;;;2.90;;
65835;SDS011;52595;51.608;7.216;2022-07-29T06:43:31;9.23;;;2.75;;
65835;SDS011;52595;51.608;7.216;2022-07-29T06:45:59;5.45;;;2.80;;
65835;SDS011;52595;51.608;7.216;2022-07-29T06:48:26;10.32;;;3.25;;
65835;SDS011;52595;51.608;7.216;2022-07-29T06:50:52;4.50;;;2.70;;
65835;SDS011;52595;51.608;7.216;2022-07-29T06:53:17;5.47;;;2.80;;
65835;SDS011;52595;51.608;7.216;2022-07-29T06:55:42;6.03;;;2.50;;
65835;SDS011;52595;51.608;7.216;2022-07-29T06:58:08;10.88;;;2.58;;
65835;SDS011;52595;51.608;7.216;2022-07-29T07:00:34;5.72;;;2.47;;
65835;SDS011;52595;51.608;7.216;2022-07-29T07:03:00;5.63;;;2.63;;
65835;SDS011;52595;51.608;7.216;2022-07-29T07:05:26;3.60;;;2.45;;
65835;SDS011;52595;51.608;7.216;2022-07-29T07:07:51;6.38;;;2.80;;
65835;SDS011;52595;51.608;7.216;2022-07-29T07:10:17;6.18;;;2.72;;
65835;SDS011;52595;51.608;7.216;2022-07-29T07:12:42;8.40;;;2.40;;
65835;SDS011;52595;51.608;7.216;2022-07-29T07:15:07;6.25;;;2.53;;
65835;SDS011;52595;51.608;7.216;2022-07-29T07:17:33;6.57;;;2.33;;
65835;SDS011;52595;51.608;7.216;2022-07-29T07:19:59;11.45;;;3.00;;
65835;SDS011;52595;51.608;7.216;2022-07-29T07:22:24;7.75;;;2.60;;
65835;SDS011;52595;51.608;7.216;2022-07-29T07:24:49;6.85;;;2.60;;
65835;SDS011;52595;51.608;7.216;2022-07-29T07:27:15;9.85;;;3.20;;
65835;SDS011;52595;51.608;7.216;2022-07-29T07:29:40;6.65;;;3.00;;
65835;SDS011;52595;51.608;7.216;2022-07-29T07:32:06;9.68;;;2.97;;
65835;SDS011;52595;51.608;7.216;2022-07-29T07:34:32;5.45;;;2.67;;
65835;SDS011;52595;51.608;7.216;2022-07-29T07:36:57;4.93;;;2.85;;
65835;SDS011;52595;51.608;7.216;2022-07-29T07:39:23;8.35;;;2.92;;
65835;SDS011;52595;51.608;7.216;2022-07-29T07:41:48;9.50;;;3.30;;
65835;SDS011;52595;51.608;7.216;2022-07-29T07:44:14;6.20;;;2.72;;
65835;SDS011;52595;51.608;7.216;2022-07-29T07:46:39;7.63;;;2.70;;
65835;SDS011;52595;51.608;7.216;2022-07-29T07:49:05;6.13;;;2.70;;
65835;SDS011;52595;51.608;7.216;2022-07-29T07:51:30;4.93;;;2.50;;
65835;SDS011;52595;51.608;7.216;2022-07-29T07:53:55;8.27;;;2.70;;
65835;SDS011;52595;51.608;7.216;2022-07-29T07:56:21;7.22;;;2.78;;
65835;SDS011;52595;51.608;7.216;2022-07-29T07:58:46;7.72;;;2.72;;
65835;SDS011;52595;51.608;7.216;2022-07-29T08:01:12;10.25;;;2.90;;
65835;SDS011;52595;51.608;7.216;2022-07-29T08:03:37;4.60;;;2.60;;
65835;SDS011;52595;51.608;7.216;2022-07-29T08:06:03;4.32;;;2.65;;
65835;SDS011;52595;51.608;7.216;2022-07-29T08:08:29;5.00;;;2.47;;
65835;SDS011;52595;51.608;7.216;2022-07-29T08:10:55;5.97;;;2.50;;
65835;SDS011;52595;51.608;7.216;2022-07-29T08:13:21;10.57;;;3.10;;
65835;SDS011;52595;51.608;7.216;2022-07-29T08:15:48;8.85;;;2.92;;
65835;SDS011;52595;51.608;7.216;2022-07-29T08:18:22;4.38;;;2.60;;
65835;SDS011;52595;51.608;7.216;2022-07-29T08:20:57;6.95;;;3.13;;
65835;SDS011;52595;51.608;7.216;2022-07-29T08:23:22;4.38;;;2.47;;
65835;SDS011;52595;51.608;7.216;2022-07-29T08:25:48;8.77;;;2.47;;
65835;SDS011;52595;51.608;7.216;2022-07-29T08:28:15;5.53;;;2.85;;
65835;SDS011;52595;51.608;7.216;2022-07-29T08:30:40;6.05;;;2.45;;
65835;SDS011;52595;51.608;7.216;2022-07-29T08:33:06;8.93;;;3.25;;
65835;SDS011;52595;51.608;7.216;2022-07-29T08:35:31;7.05;;;2.75;;
65835;SDS011;52595;51.608;7.216;2022-07-29T08:37:57;8.70;;;2.88;;
65835;SDS011;52595;51.608;7.216;2022-07-29T08:40:23;6.75;;;3.28;;
65835;SDS011;52595;51.608;7.216;2022-07-29T08:42:49;7.72;;;3.17;;
65835;SDS011;52595;51.608;7.216;2022-07-29T08:45:15;6.13;;;2.90;;
65835;SDS011;52595;51.608;7.216;2022-07-29T08:47:41;4.90;;;2.88;;
65835;SDS011;52595;51.608;7.216;2022-07-29T08:50:10;8.05;;;3.20;;
65835;SDS011;52595;51.608;7.216;2022-07-29T08:52:36;8.20;;;2.90;;
65835;SDS011;52595;51.608;7.216;2022-07-29T08:55:04;9.10;;;3.25;;
65835;SDS011;52595;51.608;7.216;2022-07-29T08:57:31;6.22;;;2.85;;
65835;SDS011;52595;51.608;7.216;2022-07-29T08:59:58;4.53;;;3.20;;
65835;SDS011;52595;51.608;7.216;2022-07-29T09:02:25;5.88;;;2.90;;
65835;SDS011;52595;51.608;7.216;2022-07-29T09:04:54;5.15;;;3.00;;
65835;SDS011;52595;51.608;7.216;2022-07-29T09:07:24;9.20;;;3.17;;
65835;SDS011;52595;51.608;7.216;2022-07-29T09:09:49;5.80;;;3.38;;
65835;SDS011;52595;51.608;7.216;2022-07-29T09:12:15;7.88;;;3.60;;
65835;SDS011;52595;51.608;7.216;2022-07-29T09:14:41;10.50;;;4.10;;
65835;SDS011;52595;51.608;7.216;2022-07-29T09:17:07;7.93;;;3.50;;
65835;SDS011;52595;51.608;7.216;2022-07-29T09:19:33;6.85;;;3.67;;
65835;SDS011;52595;51.608;7.216;2022-07-29T09:22:00;7.50;;;3.42;;
65835;SDS011;52595;51.608;7.216;2022-07-29T09:24:38;7.20;;;3.33;;
65835;SDS011;52595;51.608;7.216;2022-07-29T09:27:12;7.65;;;3.42;;
65835;SDS011;52595;51.608;7.216;2022-07-29T09:29:54;12.75;;;4.30;;
65835;SDS011;52595;51.608;7.216;2022-07-29T09:32:30;6.05;;;3.17;;
65835;SDS011;52595;51.608;7.216;2022-07-29T09:37:43;5.22;;;3.30;;
65835;SDS011;52595;51.608;7.216;2022-07-29T09:40:16;6.30;;;3.50;;
65835;SDS011;52595;51.608;7.216;2022-07-29T09:42:45;9.65;;;3.60;;
65835;SDS011;52595;51.608;7.216;2022-07-29T09:45:11;6.38;;;3.50;;
65835;SDS011;52595;51.608;7.216;2022-07-29T09:47:50;4.45;;;3.08;;
65835;SDS011;52595;51.608;7.216;2022-07-29T09:50:16;5.93;;;2.80;;
65835;SDS011;52595;51.608;7.216;2022-07-29T09:52:47;6.18;;;3.08;;
65835;SDS011;52595;51.608;7.216;2022-07-29T09:55:14;6.45;;;3.25;;
65835;SDS011;52595;51.608;7.216;2022-07-29T09:57:41;7.60;;;3.20;;
65835;SDS011;52595;51.608;7.216;2022-07-29T10:00:17;8.23;;;3.17;;
65835;SDS011;52595;51.608;7.216;2022-07-29T10:02:44;8.48;;;3.30;;
65835;SDS011;52595;51.608;7.216;2022-07-29T10:07:46;11.73;;;3.72;;
65835;SDS011;52595;51.608;7.216;2022-07-29T10:10:20;6.53;;;3.65;;
65835;SDS011;52595;51.608;7.216;2022-07-29T10:15:23;7.80;;;3.85;;
65835;SDS011;52595;51.608;7.216;2022-07-29T10:17:51;7.82;;;4.10;;
65835;SDS011;52595;51.608;7.216;2022-07-29T10:20:18;9.35;;;5.55;;
65835;SDS011;52595;51.608;7.216;2022-07-29T10:22:44;7.57;;;4.50;;
65835;SDS011;52595;51.608;7.216;2022-07-29T10:25:12;10.32;;;5.00;;
65835;SDS011;52595;51.608;7.216;2022-07-29T10:27:38;10.00;;;4.80;;
65835;SDS011;52595;51.608;7.216;2022-07-29T10:30:05;7.43;;;4.70;;
65835;SDS011;52595;51.608;7.216;2022-07-29T10:32:34;7.45;;;4.47;;
65835;SDS011;52595;51.608;7.216;2022-07-29T10:43:32;9.20;;;4.78;;
65835;SDS011;52595;51.608;7.216;2022-07-29T10:46:01;11.13;;;4.63;;
65835;SDS011;52595;51.608;7.216;2022-07-29T10:48:27;7.93;;;4.35;;
65835;SDS011;52595;51.608;7.216;2022-07-29T10:51:04;7.05;;;4.55;;
65835;SDS011;52595;51.608;7.216;2022-07-29T10:53:46;9.60;;;4.80;;
65835;SDS011;52595;51.608;7.216;2022-07-29T10:56:24;6.50;;;3.92;;
65835;SDS011;52595;51.608;7.216;2022-07-29T11:01:48;5.88;;;3.80;;
65835;SDS011;52595;51.608;7.216;2022-07-29T11:05:01;8.02;;;3.80;;
65835;SDS011;52595;51.608;7.216;2022-07-29T11:07:09;7.57;;;3.55;;
65835;SDS011;52595;51.608;7.216;2022-07-29T11:09:35;9.07;;;3.63;;
65835;SDS011;52595;51.608;7.216;2022-07-29T11:12:01;7.93;;;3.70;;
65835;SDS011;52595;51.608;7.216;2022-07-29T11:17:17;6.18;;;3.40;;
65835;SDS011;52595;51.608;7.216;2022-07-29T11:19:42;6.57;;;3.50;;
65835;SDS011;52595;51.608;7.216;2022-07-29T11:22:09;8.05;;;3.60;;
65835;SDS011;52595;51.608;7.216;2022-07-29T11:24:36;7.47;;;3.47;;
65835;SDS011;52595;51.608;7.216;2022-07-29T11:32:20;7.30;;;3.33;;
65835;SDS011;52595;51.608;7.216;2022-07-29T11:34:47;10.13;;;3.70;;
65835;SDS011;52595;51.608;7.216;2022-07-29T11:37:13;6.03;;;3.63;;
65835;SDS011;52595;51.608;7.216;2022-07-29T11:47:30;7.00;;;3.47;;
65835;SDS011;52595;51.608;7.216;2022-07-29T11:49:57;5.78;;;3.17;;
65835;SDS011;52595;51.608;7.216;2022-07-29T11:55:12;7.57;;;3.15;;
65835;SDS011;52595;51.608;7.216;2022-07-29T11:57:49;7.15;;;3.42;;
65835;SDS011;52595;51.608;7.216;2022-07-29T12:00:29;5.97;;;3.00;;
65835;SDS011;52595;51.608;7.216;2022-07-29T12:03:04;6.57;;;2.70;;
65835;SDS011;52595;51.608;7.216;2022-07-29T12:08:07;6.22;;;2.70;;
65835;SDS011;52595;51.608;7.216;2022-07-29T12:10:35;7.38;;;2.80;;
65835;SDS011;52595;51.608;7.216;2022-07-29T12:13:01;5.90;;;2.60;;
65835;SDS011;52595;51.608;7.216;2022-07-29T12:15:26;6.90;;;3.00;;
65835;SDS011;52595;51.608;7.216;2022-07-29T12:17:52;6.07;;;2.80;;
65835;SDS011;52595;51.608;7.216;2022-07-29T12:20:28;6.10;;;2.90;;
65835;SDS011;52595;51.608;7.216;2022-07-29T12:22:54;6.18;;;3.10;;
65835;SDS011;52595;51.608;7.216;2022-07-29T12:25:21;6.53;;;2.80;;
65835;SDS011;52595;51.608;7.216;2022-07-29T12:27:58;9.48;;;3.00;;
65835;SDS011;52595;51.608;7.216;2022-07-29T12:30:33;5.78;;;3.00;;
65835;SDS011;52595;51.608;7.216;2022-07-29T12:33:00;5.65;;;2.90;;
65835;SDS011;52595;51.608;7.216;2022-07-29T12:35:26;5.68;;;2.67;;
65835;SDS011;52595;51.608;7.216;2022-07-29T12:37:52;4.97;;;2.63;;
65835;SDS011;52595;51.608;7.216;2022-07-29T12:40:17;8.95;;;3.25;;
65835;SDS011;52595;51.608;7.216;2022-07-29T12:45:30;6.22;;;2.80;;
65835;SDS011;52595;51.608;7.216;2022-07-29T12:47:56;6.43;;;3.00;;
65835;SDS011;52595;51.608;7.216;2022-07-29T12:50:22;5.93;;;2.75;;
65835;SDS011;52595;51.608;7.216;2022-07-29T12:52:50;9.52;;;3.10;;
65835;SDS011;52595;51.608;7.216;2022-07-29T12:55:15;7.93;;;2.90;;
65835;SDS011;52595;51.608;7.216;2022-07-29T12:57:47;7.05;;;2.80;;
65835;SDS011;52595;51.608;7.216;2022-07-29T13:00:15;5.45;;;2.67;;
65835;SDS011;52595;51.608;7.216;2022-07-29T13:02:41;5.28;;;2.75;;
65835;SDS011;52595;51.608;7.216;2022-07-29T13:05:08;7.47;;;2.70;;
65835;SDS011;52595;51.608;7.216;2022-07-29T13:07:36;5.57;;;2.55;;
65835;SDS011;52595;51.608;7.216;2022-07-29T13:10:15;7.78;;;2.80;;
65835;SDS011;52595;51.608;7.216;2022-07-29T13:15:33;10.63;;;2.60;;
65835;SDS011;52595;51.608;7.216;2022-07-29T13:17:59;5.07;;;2.42;;
65835;SDS011;52595;51.608;7.216;2022-07-29T13:20:25;8.15;;;2.45;;
65835;SDS011;52595;51.608;7.216;2022-07-29T13:22:55;5.00;;;2.90;;
65835;SDS011;52595;51.608;7.216;2022-07-29T13:25:26;9.02;;;2.80;;
65835;SDS011;52595;51.608;7.216;2022-07-29T13:27:56;7.03;;;2.55;;
65835;SDS011;52595;51.608;7.216;2022-07-29T13:30:22;5.47;;;3.13;;
65835;SDS011;52595;51.608;7.216;2022-07-29T13:32:49;7.93;;;2.72;;
65835;SDS011;52595;51.608;7.216;2022-07-29T13:35:15;6.47;;;2.72;;
65835;SDS011;52595;51.608;7.216;2022-07-29T13:37:41;7.55;;;2.85;;
65835;SDS011;52595;51.608;7.216;2022-07-29T13:40:07;4.32;;;2.80;;
65835;SDS011;52595;51.608;7.216;2022-07-29T13:42:33;6.63;;;2.72;;
65835;SDS011;52595;51.608;7.216;2022-07-29T13:44:59;5.82;;;2.83;;
65835;SDS011;52595;51.608;7.216;2022-07-29T13:47:25;6.05;;;2.67;;
65835;SDS011;52595;51.608;7.216;2022-07-29T13:49:52;6.47;;;2.70;;
65835;SDS011;52595;51.608;7.216;2022-07-29T13:52:18;7.60;;;2.97;;
65835;SDS011;52595;51.608;7.216;2022-07-29T13:54:44;7.22;;;2.78;;
65835;SDS011;52595;51.608;7.216;2022-07-29T13:57:10;6.53;;;2.60;;
65835;SDS011;52595;51.608;7.216;2022-07-29T13:59:36;6.72;;;2.55;;
65835;SDS011;52595;51.608;7.216;2022-07-29T14:02:02;4.55;;;2.60;;
65835;SDS011;52595;51.608;7.216;2022-07-29T14:04:28;10.25;;;2.90;;
65835;SDS011;52595;51.608;7.216;2022-07-29T14:06:53;5.38;;;2.65;;
65835;SDS011;52595;51.608;7.216;2022-07-29T14:09:19;5.13;;;2.55;;
65835;SDS011;52595;51.608;7.216;2022-07-29T14:11:44;7.60;;;2.60;;
65835;SDS011;52595;51.608;7.216;2022-07-29T14:14:10;6.38;;;2.55;;
65835;SDS011;52595;51.608;7.216;2022-07-29T14:16:36;5.78;;;2.58;;
65835;SDS011;52595;51.608;7.216;2022-07-29T14:19:02;7.28;;;2.50;;
65835;SDS011;52595;51.608;7.216;2022-07-29T14:21:27;8.68;;;3.03;;
65835;SDS011;52595;51.608;7.216;2022-07-29T14:23:53;6.60;;;2.60;;
65835;SDS011;52595;51.608;7.216;2022-07-29T14:26:20;5.50;;;2.67;;
65835;SDS011;52595;51.608;7.216;2022-07-29T14:28:46;4.47;;;2.40;;
65835;SDS011;52595;51.608;7.216;2022-07-29T14:31:12;7.57;;;2.97;;
65835;SDS011;52595;51.608;7.216;2022-07-29T14:33:37;6.80;;;2.45;;
65835;SDS011;52595;51.608;7.216;2022-07-29T14:36:03;9.00;;;2.53;;
65835;SDS011;52595;51.608;7.216;2022-07-29T14:38:28;6.32;;;2.50;;
65835;SDS011;52595;51.608;7.216;2022-07-29T14:40:54;5.32;;;2.70;;
65835;SDS011;52595;51.608;7.216;2022-07-29T14:43:19;6.18;;;2.55;;
65835;SDS011;52595;51.608;7.216;2022-07-29T14:45:45;7.32;;;2.45;;
65835;SDS011;52595;51.608;7.216;2022-07-29T14:48:10;4.68;;;2.45;;
65835;SDS011;52595;51.608;7.216;2022-07-29T14:50:36;5.32;;;2.22;;
65835;SDS011;52595;51.608;7.216;2022-07-29T14:53:02;6.25;;;2.45;;
65835;SDS011;52595;51.608;7.216;2022-07-29T14:55:28;6.40;;;2.35;;
65835;SDS011;52595;51.608;7.216;2022-07-29T14:57:53;5.43;;;2.70;;
65835;SDS011;52595;51.608;7.216;2022-07-29T15:00:19;5.47;;;2.60;;
65835;SDS011;52595;51.608;7.216;2022-07-29T15:02:45;8.10;;;2.55;;
65835;SDS011;52595;51.608;7.216;2022-07-29T15:05:11;5.45;;;2.53;;
65835;SDS011;52595;51.608;7.216;2022-07-29T15:07:37;9.60;;;2.50;;
65835;SDS011;52595;51.608;7.216;2022-07-29T15:10:02;5.40;;;2.47;;
65835;SDS011;52595;51.608;7.216;2022-07-29T15:12:29;7.00;;;2.45;;
65835;SDS011;52595;51.608;7.216;2022-07-29T15:14:55;6.47;;;2.30;;
65835;SDS011;52595;51.608;7.216;2022-07-29T15:17:21;5.68;;;2.53;;
65835;SDS011;52595;51.608;7.216;2022-07-29T15:19:46;5.82;;;2.50;;
65835;SDS011;52595;51.608;7.216;2022-07-29T15:22:11;7.30;;;2.60;;
65835;SDS011;52595;51.608;7.216;2022-07-29T15:24:37;6.60;;;2.63;;
65835;SDS011;52595;51.608;7.216;2022-07-29T15:27:02;5.60;;;2.40;;
65835;SDS011;52595;51.608;7.216;2022-07-29T15:29:28;5.55;;;2.60;;
65835;SDS011;52595;51.608;7.216;2022-07-29T15:31:53;5.60;;;2.40;;
65835;SDS011;52595;51.608;7.216;2022-07-29T15:34:18;7.40;;;2.50;;
65835;SDS011;52595;51.608;7.216;2022-07-29T15:36:45;6.80;;;2.38;;
65835;SDS011;52595;51.608;7.216;2022-07-29T15:39:11;9.00;;;2.50;;
65835;SDS011;52595;51.608;7.216;2022-07-29T15:41:36;5.50;;;2.75;;
65835;SDS011;52595;51.608;7.216;2022-07-29T15:44:02;7.35;;;2.63;;
65835;SDS011;52595;51.608;7.216;2022-07-29T15:46:27;7.03;;;2.40;;
65835;SDS011;52595;51.608;7.216;2022-07-29T15:49:12;9.32;;;2.78;;